createdAt,value
2022-10-26T06:17:54.331Z,101374.88
2022-10-26T06:20:51.731Z,101387.44
2022-10-26T06:23:45.311Z,101381.25
2022-10-26T06:26:36.823Z,101387.44
2022-10-26T06:29:28.258Z,101397.03
2022-10-26T06:32:06.158Z,101392.69
2022-10-26T06:34:51.051Z,101402.34
2022-10-26T06:37:29.447Z,101399.91
2022-10-26T06:40:07.953Z,101403.34
2022-10-26T06:42:46.852Z,101413.84
2022-10-26T06:45:25.911Z,101417.25
2022-10-26T06:48:10.973Z,101417.25
2022-10-26T06:50:56.725Z,101413.53
2022-10-26T06:56:18.308Z,101424.06
2022-10-26T06:59:02.320Z,101423.09
2022-10-26T07:01:41.742Z,101424.81
2022-10-26T07:04:19.152Z,101422.97
2022-10-26T07:06:59.270Z,101427.97
2022-10-26T07:09:36.583Z,101436.72
2022-10-26T07:12:13.465Z,101441.81
2022-10-26T07:14:50.975Z,101442.56
2022-10-26T07:17:28.765Z,101448.50
2022-10-26T07:20:06.067Z,101441.78
2022-10-26T07:22:46.160Z,101451.38
2022-10-26T07:25:23.874Z,101443.91
2022-10-26T07:28:02.221Z,101457.72
2022-10-26T07:30:40.229Z,101436.94
2022-10-26T07:33:18.138Z,101441.69
2022-10-26T07:35:56.567Z,101449.34
2022-10-26T07:38:36.567Z,101448.78
2022-10-26T07:41:14.548Z,101446.72
2022-10-26T07:43:51.531Z,101442.56
2022-10-26T07:46:30.029Z,101453.75
2022-10-26T07:49:06.735Z,101450.41
2022-10-26T07:51:44.084Z,101459.63
2022-10-26T07:54:24.006Z,101457.25
2022-10-26T07:57:01.547Z,101462.31
2022-10-26T07:59:38.438Z,101458.56
2022-10-26T08:02:15.672Z,101467.00
2022-10-26T08:04:53.194Z,101467.88
2022-10-26T08:07:30.419Z,101471.75
2022-10-26T08:10:11.303Z,101471.28
2022-10-26T08:12:48.538Z,101473.22
2022-10-26T08:15:25.582Z,101484.25
2022-10-26T08:18:02.704Z,101476.38
2022-10-26T08:20:39.648Z,101476.75
2022-10-26T08:23:16.713Z,101473.97
2022-10-26T08:26:00.968Z,101485.03
2022-10-26T08:28:38.223Z,101469.88
2022-10-26T08:31:14.975Z,101487.09
2022-10-26T08:33:52.245Z,101497.56
2022-10-26T08:36:31.262Z,101483.72
2022-10-26T08:39:08.560Z,101492.34
2022-10-26T08:41:53.856Z,101485.66
2022-10-26T08:44:38.326Z,101486.63
2022-10-26T08:47:24.111Z,101494.41
2022-10-26T08:50:06.649Z,101490.28
2022-10-26T08:52:51.669Z,101499.63
2022-10-26T08:55:34.781Z,101495.75
2022-10-26T08:58:19.706Z,101505.13
2022-10-26T09:00:57.528Z,101500.63
2022-10-26T09:03:34.675Z,101500.16
2022-10-26T09:06:28.483Z,101502.69
2022-10-26T09:09:11.612Z,101502.06
2022-10-26T09:12:05.627Z,101497.13
2022-10-26T09:14:57.217Z,101507.31
2022-10-26T09:17:46.179Z,101507.06
2022-10-26T09:21:01.150Z,101510.22
2022-10-26T09:23:58.802Z,101516.53
2022-10-26T09:26:42.443Z,101512.16
2022-10-26T09:29:19.678Z,101505.28
2022-10-26T09:32:03.353Z,101519.09
2022-10-26T09:34:49.601Z,101512.69
2022-10-26T09:37:31.813Z,101501.25
2022-10-26T09:40:19.627Z,101506.69
2022-10-26T09:43:01.431Z,101504.66
2022-10-26T09:45:42.114Z,101500.81
2022-10-26T09:48:30.796Z,101509.75
2022-10-26T09:51:08.295Z,101508.94
2022-10-26T09:53:45.076Z,101513.53
2022-10-26T09:56:22.946Z,101510.72
2022-10-26T09:59:04.966Z,101515.38
2022-10-26T10:01:42.628Z,101507.78
2022-10-26T10:04:26.774Z,101514.97
2022-10-26T10:07:17.338Z,101514.72
2022-10-26T10:10:12.538Z,101509.50
2022-10-26T10:12:52.804Z,101514.31
2022-10-26T10:15:30.224Z,101517.84
2022-10-26T10:18:07.528Z,101523.25
2022-10-26T10:20:59.718Z,101517.44
2022-10-26T10:23:39.409Z,101518.88
2022-10-26T10:26:16.240Z,101528.94
2022-10-26T10:29:04.220Z,101532.59
2022-10-26T10:31:41.071Z,101521.28
2022-10-26T10:34:21.104Z,101529.22
2022-10-26T10:37:01.295Z,101527.75
2022-10-26T10:39:43.013Z,101526.63
2022-10-26T10:42:24.580Z,101540.50
2022-10-26T10:45:03.110Z,101530.88
2022-10-26T10:47:43.163Z,101531.47
2022-10-26T10:50:23.941Z,101534.56
2022-10-26T10:53:25.757Z,101527.22
2022-10-26T10:56:24.059Z,101536.56
2022-10-26T10:59:28.063Z,101540.78
2022-10-26T11:02:32.772Z,101543.28
2022-10-26T11:05:27.488Z,101540.75
2022-10-26T11:08:13.241Z,101552.59
2022-10-26T11:11:01.471Z,101557.38
2022-10-26T11:13:44.024Z,101555.59
2022-10-26T11:16:26.947Z,101556.16
2022-10-26T11:19:07.752Z,101562.41
2022-10-26T11:21:47.776Z,101560.38
2022-10-26T11:24:30.249Z,101565.47
2022-10-26T11:27:20.035Z,101571.38
2022-10-26T11:30:05.801Z,101566.66
2022-10-26T11:32:50.407Z,101569.53
2022-10-26T11:35:32.682Z,101580.81
2022-10-26T11:38:28.219Z,101583.09
2022-10-26T11:41:22.864Z,101583.03
2022-10-26T11:44:09.329Z,101590.88
2022-10-26T11:46:50.494Z,101590.94
2022-10-26T11:49:36.037Z,101585.13
2022-10-26T11:52:19.601Z,101587.59
2022-10-26T11:55:00.836Z,101590.09
2022-10-26T11:57:40.968Z,101588.41
2022-10-26T12:00:25.214Z,101597.94
2022-10-26T12:03:10.122Z,101594.28
2022-10-26T12:05:52.099Z,101596.75
2022-10-26T12:08:34.876Z,101599.44
2022-10-26T12:11:31.056Z,101607.69
2022-10-26T12:14:22.503Z,101603.47
2022-10-26T12:17:11.542Z,101607.25
2022-10-26T12:19:54.317Z,101603.13
2022-10-26T12:22:36.231Z,101621.72
2022-10-26T12:25:25.688Z,101603.38
2022-10-26T12:28:03.181Z,101619.44
2022-10-26T12:30:40.886Z,101613.75
2022-10-26T12:33:52.072Z,101630.91
2022-10-26T12:37:13.575Z,101607.53
2022-10-26T12:39:50.275Z,101607.53
2022-10-26T12:42:34.486Z,101609.34
2022-10-26T12:45:25.770Z,101620.81
2022-10-26T12:48:15.639Z,101617.47
2022-10-26T12:51:47.928Z,101611.47
2022-10-26T12:54:40.472Z,101615.41
2022-10-26T12:57:28.138Z,101616.63
2022-10-26T13:00:09.322Z,101616.09
2022-10-26T13:03:04.982Z,101610.28
2022-10-26T13:06:26.986Z,101613.09
2022-10-26T13:09:20.009Z,101620.22
2022-10-26T13:12:01.143Z,101610.06
2022-10-26T13:14:42.361Z,101619.63
2022-10-26T13:17:32.194Z,101611.41
2022-10-26T13:20:20.858Z,101621.56
2022-10-26T13:22:58.594Z,101629.06
2022-10-26T13:25:39.673Z,101627.88
2022-10-26T13:28:37.040Z,101631.16
2022-10-26T13:31:59.660Z,101636.50
2022-10-26T13:34:37.868Z,101638.97
2022-10-26T13:37:24.839Z,101637.28
2022-10-26T13:40:04.068Z,101638.47
2022-10-26T13:42:52.954Z,101641.00
2022-10-26T13:45:34.478Z,101639.75
2022-10-26T13:48:20.454Z,101634.41
2022-10-26T13:51:01.956Z,101646.97
2022-10-26T13:53:47.147Z,101647.69
2022-10-26T13:56:36.531Z,101650.88
2022-10-26T14:02:27.060Z,101645.78
2022-10-26T14:05:08.050Z,101643.63
2022-10-26T14:07:51.443Z,101644.38
2022-10-26T14:10:36.507Z,101646.22
2022-10-26T14:13:19.623Z,101640.53
2022-10-26T14:16:02.611Z,101648.09
2022-10-26T14:18:40.823Z,101654.41
2022-10-26T14:21:22.729Z,101653.69
2022-10-26T14:24:08.111Z,101657.16
2022-10-26T14:26:46.188Z,101659.22
2022-10-26T14:29:27.918Z,101658.63
2022-10-26T14:32:26.363Z,101659.50
2022-10-26T14:35:04.590Z,101665.81
2022-10-26T14:37:49.607Z,101660.59
2022-10-26T14:40:32.981Z,101667.63
2022-10-26T14:43:13.516Z,101665.56
2022-10-26T14:45:55.940Z,101657.81
2022-10-26T14:48:40.330Z,101659.75
2022-10-26T14:51:24.159Z,101660.88
2022-10-26T14:54:05.733Z,101666.31
2022-10-26T14:56:45.732Z,101664.97
2022-10-26T14:59:30.516Z,101664.25
2022-10-26T15:02:25.339Z,101663.38
2022-10-26T15:05:24.386Z,101673.50
2022-10-26T15:08:06.231Z,101671.44
2022-10-26T15:11:11.456Z,101666.94
2022-10-26T15:13:52.255Z,101670.84
2022-10-26T15:16:35.543Z,101672.53
2022-10-26T15:19:24.760Z,101667.19
2022-10-26T15:22:07.437Z,101676.19
2022-10-26T15:24:46.405Z,101681.78
2022-10-26T15:27:23.584Z,101680.06
2022-10-26T15:30:22.907Z,101685.06
2022-10-26T15:33:15.565Z,101687.16
2022-10-26T15:36:09.398Z,101680.31
2022-10-26T15:38:52.308Z,101682.03
2022-10-26T15:41:34.148Z,101684.44
2022-10-26T15:44:20.600Z,101696.00
2022-10-26T15:47:08.903Z,101690.78
2022-10-26T15:49:48.394Z,101698.34
2022-10-26T15:52:28.966Z,101696.63
2022-10-26T15:55:11.194Z,101703.31
2022-10-26T15:57:51.210Z,101698.56
2022-10-26T16:00:30.516Z,101696.00
2022-10-26T16:03:09.952Z,101707.78
2022-10-26T16:05:50.901Z,101697.09
2022-10-26T16:08:34.057Z,101704.38
2022-10-26T16:11:16.123Z,101707.06
2022-10-26T16:13:58.339Z,101704.88
2022-10-26T16:16:42.191Z,101709.59
2022-10-26T16:19:31.192Z,101713.34
2022-10-26T16:22:09.596Z,101718.22
2022-10-26T16:24:46.773Z,101723.81
2022-10-26T16:27:26.647Z,101727.94
2022-10-26T16:30:03.975Z,101735.66
2022-10-26T16:32:45.943Z,101732.50
2022-10-26T16:35:25.410Z,101733.72
2022-10-26T16:38:07.300Z,101736.59
2022-10-26T16:40:51.558Z,101742.16
2022-10-26T16:43:39.971Z,101741.22
2022-10-26T16:46:21.624Z,101735.13
2022-10-26T16:48:58.896Z,101731.94
2022-10-26T16:51:37.472Z,101730.22
2022-10-26T16:54:18.174Z,101740.91
2022-10-26T16:56:56.216Z,101740.38
2022-10-26T16:59:38.040Z,101741.81
2022-10-26T17:02:19.720Z,101752.97
2022-10-26T17:05:02.735Z,101758.53
2022-10-26T17:07:44.148Z,101763.34
2022-10-26T17:10:23.311Z,101758.13
2022-10-26T17:13:04.691Z,101760.03
2022-10-26T17:15:46.269Z,101773.50
2022-10-26T17:18:25.914Z,101766.47
2022-10-26T17:21:03.805Z,101764.13
2022-10-26T17:23:42.578Z,101771.41
2022-10-26T17:26:22.370Z,101769.81
2022-10-26T17:29:02.770Z,101769.28
2022-10-26T17:31:44.149Z,101767.09
2022-10-26T17:34:23.247Z,101777.44
2022-10-26T17:37:00.289Z,101774.25
2022-10-26T17:39:38.143Z,101771.31
2022-10-26T17:42:15.767Z,101776.00
2022-10-26T17:44:54.013Z,101777.50
2022-10-26T17:47:34.610Z,101778.78
2022-10-26T17:50:13.550Z,101781.25
2022-10-26T17:52:51.527Z,101791.59
2022-10-26T17:55:30.592Z,101792.41
2022-10-26T17:58:09.221Z,101796.06
2022-10-26T18:00:54.371Z,101801.72
2022-10-26T18:03:35.760Z,101809.06
2022-10-26T18:06:14.424Z,101812.91
2022-10-26T18:08:52.211Z,101813.31
2022-10-26T18:14:28.776Z,101824.78
2022-10-26T18:17:07.337Z,101823.50
2022-10-26T18:19:51.607Z,101835.88
2022-10-26T18:22:30.143Z,101835.41
2022-10-26T18:25:14.183Z,101841.91
2022-10-26T18:27:55.646Z,101838.81
2022-10-26T18:30:33.435Z,101846.25
2022-10-26T18:33:13.245Z,101842.59
2022-10-26T18:35:53.268Z,101843.09
2022-10-26T18:38:33.357Z,101848.16
2022-10-26T18:41:12.252Z,101850.38
2022-10-26T18:43:57.418Z,101850.56
2022-10-26T18:46:36.947Z,101856.25
2022-10-26T18:49:17.476Z,101853.25
2022-10-26T18:52:00.673Z,101855.13
2022-10-26T18:54:39.398Z,101855.53
2022-10-26T18:57:16.779Z,101864.47
2022-10-26T18:59:55.187Z,101869.13
2022-10-26T19:02:33.407Z,101873.59
2022-10-26T19:05:12.764Z,101871.13
2022-10-26T19:07:54.190Z,101875.31
2022-10-26T19:13:31.335Z,101877.41
2022-10-26T19:16:33.245Z,101877.59
2022-10-26T19:19:14.753Z,101876.09
2022-10-26T19:21:54.315Z,101882.22
2022-10-26T19:24:39.456Z,101881.41
2022-10-26T19:27:20.508Z,101875.56
2022-10-26T19:30:05.634Z,101880.03
2022-10-26T19:32:47.319Z,101892.66
2022-10-26T19:35:28.396Z,101895.44
2022-10-26T19:38:08.919Z,101894.00
2022-10-26T19:40:49.849Z,101902.84
2022-10-26T19:43:35.642Z,101901.97
2022-10-26T19:46:17.236Z,101900.47
